sensor_id;sensor_type;location;lat;lon;timestamp;pressure;altitude;pressure_sealevel;temperature;humidity
1472;BME280;963;42.644;23.336;2022-12-20T00:02:15;95971.59;;;0.42;68.00
1472;BME280;963;42.644;23.336;2022-12-20T00:04:40;95978.72;;;0.62;67.83
1472;BME280;963;42.644;23.336;2022-12-20T00:07:06;95981.03;;;0.58;67.02
1472;BME280;963;42.644;23.336;2022-12-20T00:09:31;95975.66;;;0.70;67.26
1472;BME280;963;42.644;23.336;2022-12-20T00:11:56;95990.41;;;0.70;67.35
1472;BME280;963;42.644;23.336;2022-12-20T00:14:22;95989.13;;;0.67;67.46
1472;BME280;963;42.644;23.336;2022-12-20T00:16:47;95986.47;;;0.57;66.91
1472;BME280;963;42.644;23.336;2022-12-20T00:19:12;95979.88;;;0.76;67.25
1472;BME280;963;42.644;23.336;2022-12-20T00:21:38;95988.59;;;0.65;66.52
1472;BME280;963;42.644;23.336;2022-12-20T00:24:04;96016.16;;;0.81;66.72
1472;BME280;963;42.644;23.336;2022-12-20T00:26:31;95998.97;;;0.70;67.11
1472;BME280;963;42.644;23.336;2022-12-20T00:28:58;96009.72;;;0.84;66.12
1472;BME280;963;42.644;23.336;2022-12-20T00:31:25;95986.28;;;0.69;67.07
1472;BME280;963;42.644;23.336;2022-12-20T00:33:53;95991.38;;;0.58;66.96
1472;BME280;963;42.644;23.336;2022-12-20T00:36:20;95998.78;;;0.77;66.61
1472;BME280;963;42.644;23.336;2022-12-20T00:38:47;95975.13;;;0.68;66.15
1472;BME280;963;42.644;23.336;2022-12-20T00:41:15;96010.00;;;0.55;66.97
1472;BME280;963;42.644;23.336;2022-12-20T00:43:41;95977.16;;;0.61;66.73
1472;BME280;963;42.644;23.336;2022-12-20T00:46:08;95966.78;;;0.56;66.36
1472;BME280;963;42.644;23.336;2022-12-20T00:48:34;95972.78;;;0.67;66.19
1472;BME280;963;42.644;23.336;2022-12-20T00:51:02;95973.47;;;0.52;66.20
1472;BME280;963;42.644;23.336;2022-12-20T00:53:28;95965.47;;;0.53;66.56
1472;BME280;963;42.644;23.336;2022-12-20T00:55:54;95980.09;;;0.38;65.90
1472;BME280;963;42.644;23.336;2022-12-20T00:58:20;95984.78;;;0.41;66.50
1472;BME280;963;42.644;23.336;2022-12-20T01:00:46;95978.63;;;0.47;66.15
1472;BME280;963;42.644;23.336;2022-12-20T01:03:11;95980.47;;;0.51;66.45
1472;BME280;963;42.644;23.336;2022-12-20T01:05:37;95989.22;;;0.77;66.00
1472;BME280;963;42.644;23.336;2022-12-20T01:08:04;95978.22;;;0.65;65.87
1472;BME280;963;42.644;23.336;2022-12-20T01:10:29;95987.56;;;0.66;65.62
1472;BME280;963;42.644;23.336;2022-12-20T01:12:55;95986.00;;;0.65;65.28
1472;BME280;963;42.644;23.336;2022-12-20T01:15:20;95968.22;;;0.42;65.96
1472;BME280;963;42.644;23.336;2022-12-20T01:17:46;95971.91;;;0.51;65.25
1472;BME280;963;42.644;23.336;2022-12-20T01:20:12;95981.69;;;0.44;66.32
1472;BME280;963;42.644;23.336;2022-12-20T01:22:38;95967.13;;;0.06;66.68
1472;BME280;963;42.644;23.336;2022-12-20T01:25:03;95967.22;;;0.16;67.32
1472;BME280;963;42.644;23.336;2022-12-20T01:27:29;95956.19;;;0.25;67.32
1472;BME280;963;42.644;23.336;2022-12-20T01:29:54;95971.47;;;0.00;68.22
1472;BME280;963;42.644;23.336;2022-12-20T01:32:20;95964.88;;;0.14;67.88
1472;BME280;963;42.644;23.336;2022-12-20T01:34:45;95963.53;;;0.07;67.83
1472;BME280;963;42.644;23.336;2022-12-20T01:37:11;95941.56;;;0.09;67.69
1472;BME280;963;42.644;23.336;2022-12-20T01:39:37;95957.66;;;0.16;67.98
1472;BME280;963;42.644;23.336;2022-12-20T01:42:03;95951.69;;;0.16;67.51
1472;BME280;963;42.644;23.336;2022-12-20T01:46:54;95947.81;;;0.13;67.39
1472;BME280;963;42.644;23.336;2022-12-20T01:51:55;95963.03;;;-0.17;68.18
1472;BME280;963;42.644;23.336;2022-12-20T01:54:33;95932.56;;;-0.10;67.33
1472;BME280;963;42.644;23.336;2022-12-20T01:57:06;95930.91;;;-0.21;68.25
1472;BME280;963;42.644;23.336;2022-12-20T01:59:36;95919.88;;;-0.12;68.14
1472;BME280;963;42.644;23.336;2022-12-20T02:02:06;95925.66;;;-0.32;67.50
1472;BME280;963;42.644;23.336;2022-12-20T02:04:34;95921.03;;;-0.29;67.77
1472;BME280;963;42.644;23.336;2022-12-20T02:07:00;95925.72;;;-0.26;68.10
1472;BME280;963;42.644;23.336;2022-12-20T02:09:28;95917.13;;;-0.32;68.48
1472;BME280;963;42.644;23.336;2022-12-20T02:17:11;95921.69;;;-0.12;66.62
1472;BME280;963;42.644;23.336;2022-12-20T02:25:15;95950.44;;;-0.36;67.54
1472;BME280;963;42.644;23.336;2022-12-20T02:27:50;95935.31;;;-0.22;67.51
1472;BME280;963;42.644;23.336;2022-12-20T03:36:06;95901.78;;;-0.39;67.93
1472;BME280;963;42.644;23.336;2022-12-20T03:38:31;95930.63;;;-0.25;67.12
1472;BME280;963;42.644;23.336;2022-12-20T03:52:39;95895.25;;;-0.46;68.83
1472;BME280;963;42.644;23.336;2022-12-20T03:55:05;95898.53;;;-0.78;69.48
1472;BME280;963;42.644;23.336;2022-12-20T03:57:30;95910.91;;;-0.58;68.59
1472;BME280;963;42.644;23.336;2022-12-20T03:59:56;95888.72;;;-0.54;68.72
1472;BME280;963;42.644;23.336;2022-12-20T04:02:21;95896.84;;;-0.40;67.95
1472;BME280;963;42.644;23.336;2022-12-20T04:04:47;95901.88;;;-0.55;68.49
1472;BME280;963;42.644;23.336;2022-12-20T04:07:13;95897.50;;;-0.77;68.55
1472;BME280;963;42.644;23.336;2022-12-20T04:09:38;95886.22;;;-0.44;68.22
1472;BME280;963;42.644;23.336;2022-12-20T04:12:04;95891.88;;;-0.47;67.56
1472;BME280;963;42.644;23.336;2022-12-20T04:14:30;95885.06;;;-0.58;67.47
1472;BME280;963;42.644;23.336;2022-12-20T04:16:55;95879.91;;;-0.58;67.46
1472;BME280;963;42.644;23.336;2022-12-20T04:19:20;95885.13;;;-0.53;67.67
1472;BME280;963;42.644;23.336;2022-12-20T04:21:46;95870.19;;;-0.46;67.02
1472;BME280;963;42.644;23.336;2022-12-20T04:24:11;95872.63;;;-0.61;67.97
1472;BME280;963;42.644;23.336;2022-12-20T04:26:37;95888.13;;;-0.61;67.84
1472;BME280;963;42.644;23.336;2022-12-20T04:29:02;95883.66;;;-0.44;67.50
1472;BME280;963;42.644;23.336;2022-12-20T04:31:28;95866.94;;;-0.36;68.06
1472;BME280;963;42.644;23.336;2022-12-20T04:33:54;95878.16;;;-0.25;67.36
1472;BME280;963;42.644;23.336;2022-12-20T04:36:19;95878.53;;;-0.12;67.56
1472;BME280;963;42.644;23.336;2022-12-20T04:38:45;95873.09;;;-0.10;66.90
1472;BME280;963;42.644;23.336;2022-12-20T04:41:10;95881.34;;;-0.13;66.24
1472;BME280;963;42.644;23.336;2022-12-20T04:43:54;95864.97;;;-0.24;66.63
1472;BME280;963;42.644;23.336;2022-12-20T04:46:21;95871.00;;;-0.13;66.39
1472;BME280;963;42.644;23.336;2022-12-20T04:48:46;95874.09;;;-0.16;66.07
1472;BME280;963;42.644;23.336;2022-12-20T04:51:12;95879.88;;;-0.04;65.09
1472;BME280;963;42.644;23.336;2022-12-20T04:53:37;95871.50;;;-0.16;64.52
1472;BME280;963;42.644;23.336;2022-12-20T04:56:17;95881.44;;;-0.03;64.86
1472;BME280;963;42.644;23.336;2022-12-20T04:58:43;95867.19;;;-0.06;64.59
1472;BME280;963;42.644;23.336;2022-12-20T05:01:09;95868.09;;;-0.22;65.61
1472;BME280;963;42.644;23.336;2022-12-20T05:03:34;95863.78;;;-0.11;64.22
1472;BME280;963;42.644;23.336;2022-12-20T05:06:00;95876.50;;;-0.37;63.72
1472;BME280;963;42.644;23.336;2022-12-20T05:08:26;95882.13;;;-0.13;63.42
1472;BME280;963;42.644;23.336;2022-12-20T05:10:51;95857.75;;;-0.22;63.38
1472;BME280;963;42.644;23.336;2022-12-20T05:13:17;95887.50;;;-0.19;63.61
1472;BME280;963;42.644;23.336;2022-12-20T05:15:42;95864.34;;;-0.36;64.36
1472;BME280;963;42.644;23.336;2022-12-20T05:18:08;95871.00;;;-0.13;63.48
1472;BME280;963;42.644;23.336;2022-12-20T05:20:34;95874.19;;;-0.01;62.95
1472;BME280;963;42.644;23.336;2022-12-20T05:22:59;95872.34;;;-0.06;63.19
1472;BME280;963;42.644;23.336;2022-12-20T05:25:46;95871.28;;;-0.10;63.50
1472;BME280;963;42.644;23.336;2022-12-20T05:28:31;95875.72;;;-0.05;64.19
1472;BME280;963;42.644;23.336;2022-12-20T05:30:57;95892.38;;;0.04;64.40
1472;BME280;963;42.644;23.336;2022-12-20T05:33:23;95873.22;;;0.00;63.89
1472;BME280;963;42.644;23.336;2022-12-20T05:35:48;95879.97;;;0.06;64.58
1472;BME280;963;42.644;23.336;2022-12-20T05:38:14;95872.19;;;0.01;64.74
1472;BME280;963;42.644;23.336;2022-12-20T05:40:40;95878.84;;;-0.03;65.04
1472;BME280;963;42.644;23.336;2022-12-20T05:43:06;95875.19;;;-0.07;64.30
1472;BME280;963;42.644;23.336;2022-12-20T05:45:32;95883.97;;;-0.08;64.12
1472;BME280;963;42.644;23.336;2022-12-20T05:47:58;95869.44;;;-0.14;65.05
1472;BME280;963;42.644;23.336;2022-12-20T05:50:24;95881.69;;;-0.05;64.12
1472;BME280;963;42.644;23.336;2022-12-20T05:52:49;95886.13;;;0.00;64.50
1472;BME280;963;42.644;23.336;2022-12-20T05:55:14;95886.03;;;-0.10;65.39
1472;BME280;963;42.644;23.336;2022-12-20T05:57:40;95884.78;;;-0.03;64.54
1472;BME280;963;42.644;23.336;2022-12-20T06:00:06;95874.41;;;-0.08;64.48
1472;BME280;963;42.644;23.336;2022-12-20T06:02:32;95881.44;;;-0.03;65.16
1472;BME280;963;42.644;23.336;2022-12-20T06:04:58;95893.91;;;0.00;65.37
1472;BME280;963;42.644;23.336;2022-12-20T06:07:24;95896.53;;;0.05;65.47
1472;BME280;963;42.644;23.336;2022-12-20T06:09:50;95895.50;;;0.06;65.58
1472;BME280;963;42.644;23.336;2022-12-20T06:12:16;95897.47;;;-0.01;65.17
1472;BME280;963;42.644;23.336;2022-12-20T06:14:41;95905.72;;;-0.04;64.90
1472;BME280;963;42.644;23.336;2022-12-20T06:17:07;95883.44;;;-0.10;66.02
1472;BME280;963;42.644;23.336;2022-12-20T06:19:32;95886.00;;;-0.15;65.65
1472;BME280;963;42.644;23.336;2022-12-20T06:21:58;95884.50;;;-0.06;65.78
1472;BME280;963;42.644;23.336;2022-12-20T06:24:24;95891.19;;;-0.10;65.02
1472;BME280;963;42.644;23.336;2022-12-20T06:26:50;95909.84;;;-0.08;65.74
1472;BME280;963;42.644;23.336;2022-12-20T06:29:16;95887.09;;;-0.06;65.61
1472;BME280;963;42.644;23.336;2022-12-20T06:31:42;95897.47;;;-0.01;66.39
1472;BME280;963;42.644;23.336;2022-12-20T06:34:08;95895.78;;;0.10;65.69
1472;BME280;963;42.644;23.336;2022-12-20T06:36:34;95890.88;;;0.13;66.03
1472;BME280;963;42.644;23.336;2022-12-20T06:39:00;95897.91;;;0.18;64.94
1472;BME280;963;42.644;23.336;2022-12-20T06:41:25;95876.44;;;0.17;64.96
1472;BME280;963;42.644;23.336;2022-12-20T06:43:51;95884.22;;;0.22;64.72
1472;BME280;963;42.644;23.336;2022-12-20T06:46:16;95880.94;;;0.32;65.26
1472;BME280;963;42.644;23.336;2022-12-20T06:48:42;95880.41;;;0.30;64.96
1472;BME280;963;42.644;23.336;2022-12-20T06:51:07;95867.69;;;0.23;64.73
1472;BME280;963;42.644;23.336;2022-12-20T06:53:32;95875.50;;;0.34;64.43
1472;BME280;963;42.644;23.336;2022-12-20T06:55:58;95864.09;;;0.29;63.55
1472;BME280;963;42.644;23.336;2022-12-20T06:58:23;95876.00;;;0.30;62.29
1472;BME280;963;42.644;23.336;2022-12-20T07:00:49;95861.94;;;0.16;62.15
1472;BME280;963;42.644;23.336;2022-12-20T07:03:14;95873.03;;;0.12;62.43
1472;BME280;963;42.644;23.336;2022-12-20T07:05:40;95874.81;;;0.43;61.35
1472;BME280;963;42.644;23.336;2022-12-20T07:08:06;95861.94;;;0.58;62.03
1472;BME280;963;42.644;23.336;2022-12-20T07:10:36;95858.06;;;0.56;60.85
1472;BME280;963;42.644;23.336;2022-12-20T07:13:01;95854.44;;;0.57;60.50
1472;BME280;963;42.644;23.336;2022-12-20T07:15:27;95857.41;;;0.76;60.71
1472;BME280;963;42.644;23.336;2022-12-20T07:17:52;95841.25;;;0.58;60.00
1472;BME280;963;42.644;23.336;2022-12-20T07:20:18;95853.66;;;0.56;60.57
1472;BME280;963;42.644;23.336;2022-12-20T07:22:46;95869.25;;;0.67;60.36
1472;BME280;963;42.644;23.336;2022-12-20T07:25:11;95854.81;;;0.76;60.62
1472;BME280;963;42.644;23.336;2022-12-20T07:27:37;95851.75;;;0.89;59.97
1472;BME280;963;42.644;23.336;2022-12-20T07:30:03;95850.44;;;0.86;59.65
1472;BME280;963;42.644;23.336;2022-12-20T07:32:29;95844.78;;;0.94;60.45
1472;BME280;963;42.644;23.336;2022-12-20T07:34:54;95848.25;;;1.15;59.15
1472;BME280;963;42.644;23.336;2022-12-20T07:37:20;95849.59;;;1.38;59.35
1472;BME280;963;42.644;23.336;2022-12-20T07:39:45;95850.63;;;1.47;58.43
1472;BME280;963;42.644;23.336;2022-12-20T07:42:11;95843.38;;;1.44;58.19
1472;BME280;963;42.644;23.336;2022-12-20T07:44:36;95841.34;;;1.56;58.48
1472;BME280;963;42.644;23.336;2022-12-20T07:47:01;95842.69;;;0.91;59.18
1472;BME280;963;42.644;23.336;2022-12-20T07:49:27;95843.88;;;1.41;58.83
1472;BME280;963;42.644;23.336;2022-12-20T07:51:56;95847.03;;;1.53;57.66
1472;BME280;963;42.644;23.336;2022-12-20T07:54:30;95854.31;;;1.72;57.37
1472;BME280;963;42.644;23.336;2022-12-20T07:56:59;95827.84;;;1.85;56.09
1472;BME280;963;42.644;23.336;2022-12-20T07:59:35;95834.63;;;1.96;56.36
1472;BME280;963;42.644;23.336;2022-12-20T08:02:03;95839.22;;;1.38;57.80
1472;BME280;963;42.644;23.336;2022-12-20T08:04:29;95837.72;;;1.68;56.97
1472;BME280;963;42.644;23.336;2022-12-20T08:06:56;95832.00;;;2.11;55.29
1472;BME280;963;42.644;23.336;2022-12-20T08:09:24;95826.84;;;1.91;55.33
1472;BME280;963;42.644;23.336;2022-12-20T08:11:52;95829.16;;;2.03;54.05
1472;BME280;963;42.644;23.336;2022-12-20T08:14:18;95819.84;;;2.02;54.13
1472;BME280;963;42.644;23.336;2022-12-20T08:16:43;95836.69;;;2.19;54.20
1472;BME280;963;42.644;23.336;2022-12-20T08:19:09;95821.63;;;2.32;53.81
1472;BME280;963;42.644;23.336;2022-12-20T08:21:35;95824.72;;;2.44;53.59
1472;BME280;963;42.644;23.336;2022-12-20T08:24:00;95822.38;;;2.42;53.57
1472;BME280;963;42.644;23.336;2022-12-20T08:26:26;95831.94;;;2.62;53.99
1472;BME280;963;42.644;23.336;2022-12-20T08:28:53;95819.94;;;2.81;53.86
1472;BME280;963;42.644;23.336;2022-12-20T08:31:18;95804.44;;;2.51;53.30
1472;BME280;963;42.644;23.336;2022-12-20T08:33:44;95819.81;;;1.71;55.27
1472;BME280;963;42.644;23.336;2022-12-20T08:36:11;95825.28;;;1.95;55.28
1472;BME280;963;42.644;23.336;2022-12-20T08:38:37;95806.53;;;2.49;54.83
1472;BME280;963;42.644;23.336;2022-12-20T08:41:07;95800.69;;;2.82;53.74
1472;BME280;963;42.644;23.336;2022-12-20T08:43:33;95797.69;;;3.14;53.61
1472;BME280;963;42.644;23.336;2022-12-20T08:45:59;95797.25;;;3.47;52.32
1472;BME280;963;42.644;23.336;2022-12-20T08:48:25;95798.13;;;3.76;52.18
1472;BME280;963;42.644;23.336;2022-12-20T08:50:59;95790.72;;;3.88;51.15
1472;BME280;963;42.644;23.336;2022-12-20T08:53:26;95797.75;;;3.88;50.55
1472;BME280;963;42.644;23.336;2022-12-20T08:55:52;95805.38;;;4.08;50.06
1472;BME280;963;42.644;23.336;2022-12-20T08:58:18;95799.28;;;4.23;50.33
1472;BME280;963;42.644;23.336;2022-12-20T09:00:43;95793.56;;;4.45;49.73
1472;BME280;963;42.644;23.336;2022-12-20T09:03:10;95786.41;;;4.60;49.38
1472;BME280;963;42.644;23.336;2022-12-20T09:05:41;95792.97;;;4.29;48.86
1472;BME280;963;42.644;23.336;2022-12-20T09:08:07;95793.41;;;4.07;49.17
1472;BME280;963;42.644;23.336;2022-12-20T09:10:32;95791.81;;;4.40;49.37
1472;BME280;963;42.644;23.336;2022-12-20T09:12:57;95772.19;;;4.71;48.89
1472;BME280;963;42.644;23.336;2022-12-20T09:15:23;95775.84;;;4.94;47.82
1472;BME280;963;42.644;23.336;2022-12-20T09:17:50;95772.38;;;4.99;47.39
1472;BME280;963;42.644;23.336;2022-12-20T09:20:16;95770.56;;;4.76;48.07
1472;BME280;963;42.644;23.336;2022-12-20T09:22:41;95762.53;;;4.96;47.57
1472;BME280;963;42.644;23.336;2022-12-20T09:25:07;95755.97;;;5.17;47.23
1472;BME280;963;42.644;23.336;2022-12-20T09:27:32;95767.13;;;5.42;46.27
1472;BME280;963;42.644;23.336;2022-12-20T09:29:58;95752.34;;;5.70;46.00
1472;BME280;963;42.644;23.336;2022-12-20T09:32:23;95740.09;;;5.84;44.97
1472;BME280;963;42.644;23.336;2022-12-20T09:34:48;95749.09;;;6.10;45.43
1472;BME280;963;42.644;23.336;2022-12-20T09:37:14;95741.19;;;6.29;44.80
1472;BME280;963;42.644;23.336;2022-12-20T09:39:39;95740.72;;;6.54;44.31
1472;BME280;963;42.644;23.336;2022-12-20T09:42:06;95740.34;;;6.75;43.51
1472;BME280;963;42.644;23.336;2022-12-20T09:44:35;95736.34;;;6.91;42.73
1472;BME280;963;42.644;23.336;2022-12-20T09:47:21;95737.09;;;6.92;42.13
1472;BME280;963;42.644;23.336;2022-12-20T09:49:50;95718.13;;;6.86;42.78
1472;BME280;963;42.644;23.336;2022-12-20T10:00:19;95710.41;;;6.81;41.98
1472;BME280;963;42.644;23.336;2022-12-20T10:02:46;95699.75;;;6.77;42.56
1472;BME280;963;42.644;23.336;2022-12-20T10:05:14;95695.91;;;7.11;41.71
1472;BME280;963;42.644;23.336;2022-12-20T10:07:47;95703.47;;;7.35;40.72
1472;BME280;963;42.644;23.336;2022-12-20T10:15:45;95673.00;;;7.39;40.55
1472;BME280;963;42.644;23.336;2022-12-20T10:18:24;95682.16;;;6.28;42.58
1472;BME280;963;42.644;23.336;2022-12-20T10:23:46;95655.34;;;7.44;40.78
1472;BME280;963;42.644;23.336;2022-12-20T10:26:15;95627.72;;;7.92;39.67
1472;BME280;963;42.644;23.336;2022-12-20T10:28:41;95641.50;;;8.14;39.63
1472;BME280;963;42.644;23.336;2022-12-20T10:31:12;95626.91;;;8.22;39.51
1472;BME280;963;42.644;23.336;2022-12-20T10:33:39;95643.13;;;8.33;39.13
1472;BME280;963;42.644;23.336;2022-12-20T10:38:58;95614.88;;;8.30;39.20
1472;BME280;963;42.644;23.336;2022-12-20T10:41:26;95605.41;;;8.60;38.36
1472;BME280;963;42.644;23.336;2022-12-20T10:46:40;95600.75;;;7.91;39.31
1472;BME280;963;42.644;23.336;2022-12-20T10:51:51;95597.03;;;8.40;38.51
1472;BME280;963;42.644;23.336;2022-12-20T10:54:29;95587.22;;;8.72;38.28
1472;BME280;963;42.644;23.336;2022-12-20T10:56:57;95589.69;;;8.94;38.00
1472;BME280;963;42.644;23.336;2022-12-20T10:59:35;95587.97;;;8.90;36.87
1472;BME280;963;42.644;23.336;2022-12-20T11:07:50;95586.28;;;9.02;36.81
1472;BME280;963;42.644;23.336;2022-12-20T11:10:20;95573.28;;;9.23;36.04
1472;BME280;963;42.644;23.336;2022-12-20T11:13:00;95572.31;;;9.45;36.06
1472;BME280;963;42.644;23.336;2022-12-20T11:15:35;95554.56;;;9.80;35.59
1472;BME280;963;42.644;23.336;2022-12-20T11:21:08;95564.88;;;10.53;34.36
1472;BME280;963;42.644;23.336;2022-12-20T11:23:42;95539.75;;;10.76;34.02
1472;BME280;963;42.644;23.336;2022-12-20T11:32:09;95520.75;;;11.37;32.88
1472;BME280;963;42.644;23.336;2022-12-20T11:37:33;95529.34;;;11.58;33.06
1472;BME280;963;42.644;23.336;2022-12-20T11:40:15;95514.63;;;11.69;32.58
1472;BME280;963;42.644;23.336;2022-12-20T11:50:48;95518.97;;;11.98;32.58
1472;BME280;963;42.644;23.336;2022-12-20T11:53:37;95512.09;;;11.48;32.21
1472;BME280;963;42.644;23.336;2022-12-20T11:56:14;95503.75;;;12.19;32.13
1472;BME280;963;42.644;23.336;2022-12-20T11:58:49;95489.69;;;12.28;31.83
1472;BME280;963;42.644;23.336;2022-12-20T12:01:18;95503.66;;;12.16;31.90
1472;BME280;963;42.644;23.336;2022-12-20T12:04:10;95503.75;;;12.19;31.47
1472;BME280;963;42.644;23.336;2022-12-20T12:06:46;95492.97;;;11.51;31.85
1472;BME280;963;42.644;23.336;2022-12-20T12:09:28;95501.00;;;11.43;32.43
1472;BME280;963;42.644;23.336;2022-12-20T12:12:10;95510.91;;;11.58;32.66
1472;BME280;963;42.644;23.336;2022-12-20T12:18:17;95488.41;;;11.97;31.68
1472;BME280;963;42.644;23.336;2022-12-20T12:20:49;95496.63;;;12.60;31.09
1472;BME280;963;42.644;23.336;2022-12-20T12:26:12;95478.56;;;13.18;30.13
1472;BME280;963;42.644;23.336;2022-12-20T12:28:39;95494.03;;;13.04;30.08
1472;BME280;963;42.644;23.336;2022-12-20T12:31:15;95479.81;;;12.80;30.35
1472;BME280;963;42.644;23.336;2022-12-20T12:33:48;95490.66;;;12.91;30.28
1472;BME280;963;42.644;23.336;2022-12-20T12:45:02;95479.66;;;13.80;29.71
1472;BME280;963;42.644;23.336;2022-12-20T12:47:47;95464.03;;;13.75;29.86
1472;BME280;963;42.644;23.336;2022-12-20T12:50:27;95474.75;;;14.14;29.12
1472;BME280;963;42.644;23.336;2022-12-20T12:52:56;95469.09;;;14.69;28.70
1472;BME280;963;42.644;23.336;2022-12-20T12:55:35;95467.59;;;15.33;27.84
1472;BME280;963;42.644;23.336;2022-12-20T13:03:43;95452.69;;;16.91;26.12
1472;BME280;963;42.644;23.336;2022-12-20T13:11:47;95446.09;;;19.15;24.19
1472;BME280;963;42.644;23.336;2022-12-20T13:21:55;95421.41;;;24.73;20.07
1472;BME280;963;42.644;23.336;2022-12-20T13:24:51;95428.69;;;24.56;19.74
1472;BME280;963;42.644;23.336;2022-12-20T13:37:54;95426.09;;;26.19;18.78
1472;BME280;963;42.644;23.336;2022-12-20T13:45:50;95450.97;;;15.86;25.92
1472;BME280;963;42.644;23.336;2022-12-20T13:48:41;95461.44;;;14.29;27.85
1472;BME280;963;42.644;23.336;2022-12-20T13:51:16;95467.56;;;12.88;29.99
1472;BME280;963;42.644;23.336;2022-12-20T13:54:00;95478.94;;;11.35;31.25
1472;BME280;963;42.644;23.336;2022-12-20T13:58:54;95470.72;;;10.38;33.23
1472;BME280;963;42.644;23.336;2022-12-20T14:01:22;95467.75;;;9.97;33.76
1472;BME280;963;42.644;23.336;2022-12-20T14:03:49;95469.25;;;9.48;35.09
1472;BME280;963;42.644;23.336;2022-12-20T14:06:17;95461.63;;;9.26;35.51
1472;BME280;963;42.644;23.336;2022-12-20T14:08:48;95456.06;;;8.72;34.33
1472;BME280;963;42.644;23.336;2022-12-20T14:13:50;95452.38;;;8.21;34.58
1472;BME280;963;42.644;23.336;2022-12-20T14:16:18;95456.22;;;7.89;34.62
1472;BME280;963;42.644;23.336;2022-12-20T14:19:04;95446.19;;;7.82;35.56
1472;BME280;963;42.644;23.336;2022-12-20T14:21:30;95450.41;;;7.44;35.51
1472;BME280;963;42.644;23.336;2022-12-20T14:24:00;95443.81;;;7.46;35.82
1472;BME280;963;42.644;23.336;2022-12-20T14:26:28;95452.78;;;7.14;36.26
1472;BME280;963;42.644;23.336;2022-12-20T14:28:56;95447.97;;;6.77;37.13
1472;BME280;963;42.644;23.336;2022-12-20T14:31:28;95454.66;;;6.92;36.97
1472;BME280;963;42.644;23.336;2022-12-20T14:34:47;95454.44;;;6.79;37.28
1472;BME280;963;42.644;23.336;2022-12-20T14:36:48;95447.84;;;6.59;37.48
1472;BME280;963;42.644;23.336;2022-12-20T14:39:33;95443.13;;;6.39;37.50
1472;BME280;963;42.644;23.336;2022-12-20T14:44:32;95441.72;;;5.97;38.03
1472;BME280;963;42.644;23.336;2022-12-20T14:47:20;95442.59;;;5.79;39.15
1472;BME280;963;42.644;23.336;2022-12-20T14:50:16;95441.44;;;5.57;39.51
1472;BME280;963;42.644;23.336;2022-12-20T14:52:42;95439.75;;;5.25;39.83
1472;BME280;963;42.644;23.336;2022-12-20T14:55:32;95445.44;;;5.00;40.83
1472;BME280;963;42.644;23.336;2022-12-20T14:57:59;95442.69;;;4.78;41.54
1472;BME280;963;42.644;23.336;2022-12-20T15:00:31;95442.88;;;4.67;42.07
1472;BME280;963;42.644;23.336;2022-12-20T15:02:58;95432.06;;;4.42;42.42
1472;BME280;963;42.644;23.336;2022-12-20T15:08:25;95438.06;;;4.42;43.09
1472;BME280;963;42.644;23.336;2022-12-20T15:11:11;95425.28;;;4.27;43.28
1472;BME280;963;42.644;23.336;2022-12-20T15:13:44;95428.28;;;4.34;43.74
1472;BME280;963;42.644;23.336;2022-12-20T15:16:29;95429.25;;;4.05;44.38
1472;BME280;963;42.644;23.336;2022-12-20T15:18:57;95432.56;;;3.92;44.84
1472;BME280;963;42.644;23.336;2022-12-20T15:21:35;95439.09;;;3.71;45.34
1472;BME280;963;42.644;23.336;2022-12-20T15:24:04;95423.81;;;3.45;46.36
1472;BME280;963;42.644;23.336;2022-12-20T15:26:34;95427.38;;;3.73;45.87
1472;BME280;963;42.644;23.336;2022-12-20T15:28:59;95436.84;;;3.64;45.97
1472;BME280;963;42.644;23.336;2022-12-20T15:31:26;95456.66;;;3.60;46.52
1472;BME280;963;42.644;23.336;2022-12-20T15:33:53;95430.28;;;3.48;46.60
1472;BME280;963;42.644;23.336;2022-12-20T15:36:24;95436.88;;;3.40;46.75
1472;BME280;963;42.644;23.336;2022-12-20T15:38:51;95439.78;;;3.15;47.85
1472;BME280;963;42.644;23.336;2022-12-20T15:41:24;95457.56;;;3.27;47.87
1472;BME280;963;42.644;23.336;2022-12-20T15:43:55;95431.19;;;3.38;47.52
1472;BME280;963;42.644;23.336;2022-12-20T15:46:20;95448.38;;;3.34;48.07
1472;BME280;963;42.644;23.336;2022-12-20T15:48:46;95448.50;;;3.48;47.68
1472;BME280;963;42.644;23.336;2022-12-20T15:51:32;95440.31;;;3.36;47.93
1472;BME280;963;42.644;23.336;2022-12-20T15:53:59;95413.22;;;3.18;48.34
1472;BME280;963;42.644;23.336;2022-12-20T15:56:26;95442.88;;;3.41;48.21
1472;BME280;963;42.644;23.336;2022-12-20T15:58:52;95430.84;;;3.21;48.14
1472;BME280;963;42.644;23.336;2022-12-20T16:01:21;95425.44;;;2.94;49.26
1472;BME280;963;42.644;23.336;2022-12-20T16:03:48;95430.03;;;3.02;50.19
1472;BME280;963;42.644;23.336;2022-12-20T16:06:13;95423.59;;;2.94;50.04
1472;BME280;963;42.644;23.336;2022-12-20T16:08:39;95427.59;;;2.87;49.61
1472;BME280;963;42.644;23.336;2022-12-20T16:11:28;95425.16;;;2.71;49.71
1472;BME280;963;42.644;23.336;2022-12-20T16:13:58;95424.66;;;2.69;49.56
1472;BME280;963;42.644;23.336;2022-12-20T16:16:29;95434.00;;;2.70;49.34
1472;BME280;963;42.644;23.336;2022-12-20T16:18:54;95429.19;;;2.54;50.10
1472;BME280;963;42.644;23.336;2022-12-20T16:21:23;95439.34;;;2.50;49.94
1472;BME280;963;42.644;23.336;2022-12-20T16:23:49;95409.16;;;2.30;50.66
1472;BME280;963;42.644;23.336;2022-12-20T16:26:16;95425.66;;;2.44;50.32
1472;BME280;963;42.644;23.336;2022-12-20T16:28:43;95431.97;;;2.33;50.18
1472;BME280;963;42.644;23.336;2022-12-20T16:31:16;95429.19;;;2.25;50.20
1472;BME280;963;42.644;23.336;2022-12-20T16:33:44;95421.91;;;2.27;50.68
1472;BME280;963;42.644;23.336;2022-12-20T16:36:10;95421.44;;;2.19;50.95
1472;BME280;963;42.644;23.336;2022-12-20T16:38:36;95415.00;;;2.12;50.91
1472;BME280;963;42.644;23.336;2022-12-20T16:41:19;95400.78;;;2.04;51.09
1472;BME280;963;42.644;23.336;2022-12-20T16:43:46;95390.97;;;2.01;50.84
1472;BME280;963;42.644;23.336;2022-12-20T16:46:15;95407.84;;;1.99;51.32
1472;BME280;963;42.644;23.336;2022-12-20T16:48:41;95406.75;;;2.05;51.28
1472;BME280;963;42.644;23.336;2022-12-20T16:51:26;95410.72;;;1.97;51.59
1472;BME280;963;42.644;23.336;2022-12-20T16:53:57;95399.47;;;2.07;50.83
1472;BME280;963;42.644;23.336;2022-12-20T16:56:24;95383.69;;;2.03;50.47
1472;BME280;963;42.644;23.336;2022-12-20T16:58:50;95395.91;;;1.98;51.41
1472;BME280;963;42.644;23.336;2022-12-20T17:01:17;95380.59;;;2.01;51.43
1472;BME280;963;42.644;23.336;2022-12-20T17:03:44;95389.03;;;1.78;51.93